Flugplatz Porta Westfalica

Für EDVY sind keine METAR/TAF Berichte vorhanden.
Es werden die Flugwettermeldungen vom Flugplatz Buckeburg Airport in 16 km Entfernung angezeigt.

Bericht für ETHB

vom 23.08. um 13:20 UTC

Wind 4 kt aus 60°

Temperatur 28.0°C

Taupunkt 11.0°C

Luftfeuchtigkeit 35%

Luftdruck 1025 hPa

ETHB 231320Z AUTO 06004KT //// // ////// 28/11 Q1025 ///

Prognose für ETHB

vom 23.08. um 00:00 UTC

Zwischen 00:00 UTC und 00:00 UTC

variable Windrichtung mit 3 kt

Sichtweite 10 km oder mehr

keine signifikanten Wettererscheinungen

gering bewölkt in 30000 ft

TAF AMD ETHB 231054Z 2305/2314 VRB03KT 9999 NSW FEW300 CANCEL 1000
Impressum